Terminal Aerodrome Forecast
Issued by NWS

Home | Current Version | Previous Version | Text Only | Print | Product List | Glossary On
Versions: 1 2 3 4 5 6 7 8 9 10 11 12 13 14 15 16 17
140
FTUS42 KKEY 172328
TAFMTH
TAF
KMTH 172328Z 1800/1824 12008KT P6SM FEW030 SCT060
     FM180200 07007KT P6SM SCT030
     FM181500 09012KT P6SM VCSH SCT020 SCT050=

USA.gov is the U.S. government's official web portal to all federal, state and local government web resources and services.